sensor_id;sensor_type;location;lat;lon;timestamp;P1;durP1;ratioP1;P2;durP2;ratioP2
58466;SDS011;44255;49.244;7.726;2022-11-12T04:33:06;13.45;;;2.80;;
58466;SDS011;44255;49.244;7.726;2022-11-12T04:35:31;7.47;;;3.73;;
58466;SDS011;44255;49.244;7.726;2022-11-12T04:37:57;4.63;;;2.90;;
58466;SDS011;44255;49.244;7.726;2022-11-12T04:40:24;5.18;;;3.13;;
58466;SDS011;44255;49.244;7.726;2022-11-12T04:43:12;6.38;;;3.33;;
58466;SDS011;44255;49.244;7.726;2022-11-12T04:45:58;9.68;;;3.00;;
58466;SDS011;44255;49.244;7.726;2022-11-12T04:48:24;7.45;;;3.10;;
58466;SDS011;44255;49.244;7.726;2022-11-12T04:50:57;6.82;;;3.10;;
58466;SDS011;44255;49.244;7.726;2022-11-12T04:53:24;9.43;;;3.30;;
58466;SDS011;44255;49.244;7.726;2022-11-12T04:55:51;10.30;;;4.40;;
58466;SDS011;44255;49.244;7.726;2022-11-12T04:58:17;15.00;;;5.57;;
58466;SDS011;44255;49.244;7.726;2022-11-12T05:00:43;8.52;;;3.33;;
58466;SDS011;44255;49.244;7.726;2022-11-12T05:03:09;8.90;;;2.78;;
58466;SDS011;44255;49.244;7.726;2022-11-12T05:05:34;7.45;;;3.28;;
58466;SDS011;44255;49.244;7.726;2022-11-12T05:08:00;5.80;;;3.37;;
58466;SDS011;44255;49.244;7.726;2022-11-12T05:12:51;5.90;;;2.92;;
58466;SDS011;44255;49.244;7.726;2022-11-12T05:15:16;12.07;;;2.47;;
58466;SDS011;44255;49.244;7.726;2022-11-12T05:17:42;4.50;;;2.85;;
58466;SDS011;44255;49.244;7.726;2022-11-12T05:22:34;8.95;;;2.78;;
58466;SDS011;44255;49.244;7.726;2022-11-12T05:24:59;4.07;;;2.53;;
58466;SDS011;44255;49.244;7.726;2022-11-12T05:27:24;4.55;;;2.88;;
58466;SDS011;44255;49.244;7.726;2022-11-12T05:29:50;6.57;;;3.10;;
58466;SDS011;44255;49.244;7.726;2022-11-12T05:32:15;9.75;;;3.70;;
58466;SDS011;44255;49.244;7.726;2022-11-12T05:34:42;7.78;;;3.20;;
58466;SDS011;44255;49.244;7.726;2022-11-12T05:37:08;5.32;;;3.22;;
58466;SDS011;44255;49.244;7.726;2022-11-12T05:39:35;6.43;;;3.42;;
58466;SDS011;44255;49.244;7.726;2022-11-12T05:42:00;5.85;;;2.97;;
58466;SDS011;44255;49.244;7.726;2022-11-12T05:44:25;6.27;;;3.37;;
58466;SDS011;44255;49.244;7.726;2022-11-12T05:46:50;7.38;;;4.13;;
58466;SDS011;44255;49.244;7.726;2022-11-12T05:49:16;7.97;;;4.67;;
58466;SDS011;44255;49.244;7.726;2022-11-12T05:51:42;13.02;;;5.05;;
58466;SDS011;44255;49.244;7.726;2022-11-12T05:56:33;14.52;;;5.57;;
58466;SDS011;44255;49.244;7.726;2022-11-12T06:01:25;10.23;;;4.82;;
58466;SDS011;44255;49.244;7.726;2022-11-12T06:03:51;11.03;;;4.50;;
58466;SDS011;44255;49.244;7.726;2022-11-12T06:06:16;7.73;;;3.80;;
58466;SDS011;44255;49.244;7.726;2022-11-12T06:08:41;7.70;;;4.07;;
58466;SDS011;44255;49.244;7.726;2022-11-12T06:11:07;5.75;;;3.47;;
58466;SDS011;44255;49.244;7.726;2022-11-12T06:13:32;8.27;;;4.35;;
58466;SDS011;44255;49.244;7.726;2022-11-12T06:15:57;5.50;;;3.83;;
58466;SDS011;44255;49.244;7.726;2022-11-12T06:18:23;6.10;;;3.83;;
58466;SDS011;44255;49.244;7.726;2022-11-12T06:20:49;6.72;;;3.45;;
58466;SDS011;44255;49.244;7.726;2022-11-12T06:23:34;6.13;;;3.28;;
58466;SDS011;44255;49.244;7.726;2022-11-12T06:26:00;6.90;;;3.70;;
58466;SDS011;44255;49.244;7.726;2022-11-12T06:28:26;6.30;;;3.40;;
58466;SDS011;44255;49.244;7.726;2022-11-12T06:30:51;6.95;;;3.88;;
58466;SDS011;44255;49.244;7.726;2022-11-12T06:33:17;4.90;;;3.13;;
58466;SDS011;44255;49.244;7.726;2022-11-12T06:35:42;9.40;;;3.37;;
58466;SDS011;44255;49.244;7.726;2022-11-12T06:38:07;4.20;;;3.30;;
58466;SDS011;44255;49.244;7.726;2022-11-12T06:40:33;5.10;;;3.23;;
58466;SDS011;44255;49.244;7.726;2022-11-12T06:42:58;6.07;;;3.13;;
58466;SDS011;44255;49.244;7.726;2022-11-12T06:45:23;6.60;;;3.80;;
58466;SDS011;44255;49.244;7.726;2022-11-12T06:47:49;6.15;;;3.22;;
58466;SDS011;44255;49.244;7.726;2022-11-12T06:50:14;5.80;;;3.50;;
58466;SDS011;44255;49.244;7.726;2022-11-12T06:52:40;4.72;;;3.08;;
58466;SDS011;44255;49.244;7.726;2022-11-12T06:55:05;5.57;;;3.77;;
58466;SDS011;44255;49.244;7.726;2022-11-12T06:57:32;6.20;;;2.83;;
58466;SDS011;44255;49.244;7.726;2022-11-12T06:59:58;3.53;;;2.80;;
58466;SDS011;44255;49.244;7.726;2022-11-12T07:02:23;8.02;;;3.15;;
58466;SDS011;44255;49.244;7.726;2022-11-12T07:04:48;5.90;;;2.80;;
58466;SDS011;44255;49.244;7.726;2022-11-12T07:07:13;4.20;;;2.93;;
58466;SDS011;44255;49.244;7.726;2022-11-12T07:09:39;5.40;;;3.13;;
58466;SDS011;44255;49.244;7.726;2022-11-12T07:12:04;5.40;;;3.05;;
58466;SDS011;44255;49.244;7.726;2022-11-12T07:14:29;5.32;;;3.35;;
58466;SDS011;44255;49.244;7.726;2022-11-12T07:16:55;10.50;;;3.93;;
58466;SDS011;44255;49.244;7.726;2022-11-12T07:19:20;12.10;;;4.17;;
58466;SDS011;44255;49.244;7.726;2022-11-12T07:21:45;6.93;;;3.63;;
58466;SDS011;44255;49.244;7.726;2022-11-12T07:24:10;8.40;;;4.80;;
58466;SDS011;44255;49.244;7.726;2022-11-12T07:26:36;10.70;;;5.55;;
58466;SDS011;44255;49.244;7.726;2022-11-12T07:29:01;12.60;;;4.60;;
58466;SDS011;44255;49.244;7.726;2022-11-12T07:31:26;25.30;;;9.67;;
58466;SDS011;44255;49.244;7.726;2022-11-12T07:33:52;22.40;;;8.43;;
58466;SDS011;44255;49.244;7.726;2022-11-12T07:36:18;35.80;;;12.82;;
58466;SDS011;44255;49.244;7.726;2022-11-12T07:38:45;35.13;;;11.68;;
58466;SDS011;44255;49.244;7.726;2022-11-12T07:41:15;37.83;;;12.23;;
58466;SDS011;44255;49.244;7.726;2022-11-12T07:43:43;38.10;;;13.13;;
58466;SDS011;44255;49.244;7.726;2022-11-12T07:46:11;56.75;;;20.10;;
58466;SDS011;44255;49.244;7.726;2022-11-12T07:48:38;48.25;;;18.58;;
58466;SDS011;44255;49.244;7.726;2022-11-12T07:53:30;15.93;;;8.23;;
58466;SDS011;44255;49.244;7.726;2022-11-12T07:55:57;7.28;;;4.65;;
58466;SDS011;44255;49.244;7.726;2022-11-12T07:58:23;12.07;;;4.47;;
58466;SDS011;44255;49.244;7.726;2022-11-12T08:00:50;5.82;;;3.95;;
58466;SDS011;44255;49.244;7.726;2022-11-12T08:03:15;6.35;;;4.13;;
58466;SDS011;44255;49.244;7.726;2022-11-12T08:05:41;5.93;;;3.95;;
58466;SDS011;44255;49.244;7.726;2022-11-12T08:08:06;6.03;;;3.40;;
58466;SDS011;44255;49.244;7.726;2022-11-12T08:10:32;5.63;;;3.13;;
58466;SDS011;44255;49.244;7.726;2022-11-12T08:12:57;4.60;;;3.20;;
58466;SDS011;44255;49.244;7.726;2022-11-12T08:15:22;14.85;;;7.97;;
58466;SDS011;44255;49.244;7.726;2022-11-12T08:17:47;11.80;;;6.85;;
58466;SDS011;44255;49.244;7.726;2022-11-12T08:20:13;21.48;;;9.38;;
58466;SDS011;44255;49.244;7.726;2022-11-12T08:22:38;21.55;;;10.38;;
58466;SDS011;44255;49.244;7.726;2022-11-12T08:25:04;22.00;;;10.43;;
58466;SDS011;44255;49.244;7.726;2022-11-12T08:27:30;17.27;;;8.75;;
58466;SDS011;44255;49.244;7.726;2022-11-12T08:29:55;25.00;;;10.30;;
58466;SDS011;44255;49.244;7.726;2022-11-12T08:32:20;15.47;;;8.13;;
58466;SDS011;44255;49.244;7.726;2022-11-12T08:34:46;18.53;;;7.97;;
58466;SDS011;44255;49.244;7.726;2022-11-12T08:37:11;16.87;;;8.87;;
58466;SDS011;44255;49.244;7.726;2022-11-12T08:42:02;19.15;;;10.15;;
58466;SDS011;44255;49.244;7.726;2022-11-12T08:44:27;18.60;;;8.98;;
58466;SDS011;44255;49.244;7.726;2022-11-12T08:46:53;18.90;;;9.77;;
58466;SDS011;44255;49.244;7.726;2022-11-12T08:49:18;21.83;;;9.80;;
58466;SDS011;44255;49.244;7.726;2022-11-12T08:51:43;17.10;;;9.63;;
58466;SDS011;44255;49.244;7.726;2022-11-12T08:54:08;19.97;;;11.30;;
58466;SDS011;44255;49.244;7.726;2022-11-12T08:56:34;17.90;;;9.43;;
58466;SDS011;44255;49.244;7.726;2022-11-12T08:58:59;25.48;;;11.77;;
58466;SDS011;44255;49.244;7.726;2022-11-12T09:01:28;25.00;;;12.05;;
58466;SDS011;44255;49.244;7.726;2022-11-12T09:03:53;29.88;;;12.07;;
58466;SDS011;44255;49.244;7.726;2022-11-12T09:06:19;27.58;;;12.90;;
58466;SDS011;44255;49.244;7.726;2022-11-12T09:08:44;23.17;;;12.50;;
58466;SDS011;44255;49.244;7.726;2022-11-12T09:11:10;33.40;;;15.48;;
58466;SDS011;44255;49.244;7.726;2022-11-12T09:13:35;12.35;;;5.97;;
58466;SDS011;44255;49.244;7.726;2022-11-12T09:16:04;12.17;;;6.17;;
58466;SDS011;44255;49.244;7.726;2022-11-12T09:18:31;10.15;;;5.55;;
58466;SDS011;44255;49.244;7.726;2022-11-12T09:21:04;7.97;;;4.88;;
58466;SDS011;44255;49.244;7.726;2022-11-12T09:23:34;7.78;;;4.85;;
58466;SDS011;44255;49.244;7.726;2022-11-12T09:26:00;10.55;;;5.80;;
58466;SDS011;44255;49.244;7.726;2022-11-12T09:28:26;9.60;;;5.80;;
58466;SDS011;44255;49.244;7.726;2022-11-12T09:30:52;9.75;;;6.00;;
58466;SDS011;44255;49.244;7.726;2022-11-12T09:33:21;12.77;;;7.28;;
58466;SDS011;44255;49.244;7.726;2022-11-12T09:35:51;11.63;;;6.63;;
58466;SDS011;44255;49.244;7.726;2022-11-12T09:38:17;12.68;;;6.05;;
58466;SDS011;44255;49.244;7.726;2022-11-12T09:46:23;11.30;;;5.70;;
58466;SDS011;44255;49.244;7.726;2022-11-12T09:49:05;8.13;;;4.60;;
58466;SDS011;44255;49.244;7.726;2022-11-12T09:51:53;7.82;;;4.70;;
58466;SDS011;44255;49.244;7.726;2022-11-12T09:54:25;9.20;;;4.90;;
58466;SDS011;44255;49.244;7.726;2022-11-12T09:56:52;7.45;;;4.80;;
58466;SDS011;44255;49.244;7.726;2022-11-12T09:59:18;8.65;;;5.25;;
58466;SDS011;44255;49.244;7.726;2022-11-12T10:10:10;6.57;;;4.07;;
58466;SDS011;44255;49.244;7.726;2022-11-12T10:23:59;6.68;;;4.68;;
58466;SDS011;44255;49.244;7.726;2022-11-12T10:26:25;6.57;;;4.25;;
58466;SDS011;44255;49.244;7.726;2022-11-12T10:31:29;6.72;;;4.57;;
58466;SDS011;44255;49.244;7.726;2022-11-12T10:34:08;6.27;;;4.37;;
58466;SDS011;44255;49.244;7.726;2022-11-12T10:36:49;6.15;;;4.38;;
58466;SDS011;44255;49.244;7.726;2022-11-12T10:39:32;7.50;;;4.82;;
58466;SDS011;44255;49.244;7.726;2022-11-12T10:42:02;7.30;;;5.07;;
58466;SDS011;44255;49.244;7.726;2022-11-12T10:44:29;7.68;;;5.00;;
58466;SDS011;44255;49.244;7.726;2022-11-12T10:47:11;9.77;;;6.43;;
58466;SDS011;44255;49.244;7.726;2022-11-12T10:50:45;9.65;;;5.78;;
58466;SDS011;44255;49.244;7.726;2022-11-12T10:55:24;9.40;;;5.63;;
58466;SDS011;44255;49.244;7.726;2022-11-12T11:00:57;9.27;;;5.60;;
58466;SDS011;44255;49.244;7.726;2022-11-12T11:05:51;8.10;;;5.35;;
58466;SDS011;44255;49.244;7.726;2022-11-12T11:08:30;12.50;;;7.35;;
58466;SDS011;44255;49.244;7.726;2022-11-12T11:11:09;7.90;;;5.55;;
58466;SDS011;44255;49.244;7.726;2022-11-12T11:13:42;8.45;;;5.72;;
58466;SDS011;44255;49.244;7.726;2022-11-12T11:16:12;8.85;;;5.80;;
58466;SDS011;44255;49.244;7.726;2022-11-12T11:18:50;7.70;;;5.20;;
58466;SDS011;44255;49.244;7.726;2022-11-12T11:29:58;10.82;;;6.88;;
58466;SDS011;44255;49.244;7.726;2022-11-12T11:43:47;9.07;;;6.13;;
58466;SDS011;44255;49.244;7.726;2022-11-12T11:55:43;10.15;;;6.63;;
58466;SDS011;44255;49.244;7.726;2022-11-12T11:58:14;9.70;;;6.75;;
58466;SDS011;44255;49.244;7.726;2022-11-12T12:06:27;10.70;;;6.70;;
58466;SDS011;44255;49.244;7.726;2022-11-12T12:09:59;8.40;;;5.85;;
58466;SDS011;44255;49.244;7.726;2022-11-12T12:12:00;11.57;;;6.75;;
58466;SDS011;44255;49.244;7.726;2022-11-12T12:15:08;9.50;;;6.80;;
58466;SDS011;44255;49.244;7.726;2022-11-12T12:17:44;11.23;;;7.13;;
58466;SDS011;44255;49.244;7.726;2022-11-12T12:22:48;9.48;;;6.97;;
58466;SDS011;44255;49.244;7.726;2022-11-12T12:25:21;12.25;;;7.60;;
58466;SDS011;44255;49.244;7.726;2022-11-12T12:27:52;10.93;;;6.57;;
58466;SDS011;44255;49.244;7.726;2022-11-12T12:30:23;10.88;;;7.55;;
58466;SDS011;44255;49.244;7.726;2022-11-12T12:32:54;10.18;;;7.18;;
58466;SDS011;44255;49.244;7.726;2022-11-12T12:35:39;12.13;;;7.95;;
58466;SDS011;44255;49.244;7.726;2022-11-12T12:38:17;11.80;;;7.85;;
58466;SDS011;44255;49.244;7.726;2022-11-12T12:43:34;10.35;;;7.10;;
58466;SDS011;44255;49.244;7.726;2022-11-12T12:46:05;12.88;;;7.43;;
58466;SDS011;44255;49.244;7.726;2022-11-12T12:48:36;11.77;;;7.93;;
58466;SDS011;44255;49.244;7.726;2022-11-12T12:51:04;12.00;;;8.00;;
58466;SDS011;44255;49.244;7.726;2022-11-12T12:53:31;11.52;;;7.60;;
58466;SDS011;44255;49.244;7.726;2022-11-12T12:56:02;12.40;;;8.50;;
58466;SDS011;44255;49.244;7.726;2022-11-12T12:58:30;14.13;;;8.32;;
58466;SDS011;44255;49.244;7.726;2022-11-12T13:01:25;13.10;;;8.65;;
58466;SDS011;44255;49.244;7.726;2022-11-12T13:09:00;14.37;;;8.63;;
58466;SDS011;44255;49.244;7.726;2022-11-12T13:19:35;19.43;;;11.23;;
58466;SDS011;44255;49.244;7.726;2022-11-12T13:25:01;15.85;;;10.23;;
58466;SDS011;44255;49.244;7.726;2022-11-12T13:37:44;18.87;;;11.17;;
58466;SDS011;44255;49.244;7.726;2022-11-12T13:40:21;18.88;;;11.57;;
58466;SDS011;44255;49.244;7.726;2022-11-12T13:45:52;16.95;;;10.88;;
58466;SDS011;44255;49.244;7.726;2022-11-12T13:48:24;18.75;;;12.55;;
58466;SDS011;44255;49.244;7.726;2022-11-12T13:51:00;16.48;;;10.63;;
58466;SDS011;44255;49.244;7.726;2022-11-12T13:53:29;17.85;;;11.43;;
58466;SDS011;44255;49.244;7.726;2022-11-12T13:55:56;15.52;;;10.57;;
58466;SDS011;44255;49.244;7.726;2022-11-12T13:58:26;19.83;;;12.30;;
58466;SDS011;44255;49.244;7.726;2022-11-12T14:00:59;20.17;;;12.05;;
58466;SDS011;44255;49.244;7.726;2022-11-12T14:03:44;17.35;;;11.85;;
58466;SDS011;44255;49.244;7.726;2022-11-12T14:12:04;17.55;;;11.82;;
58466;SDS011;44255;49.244;7.726;2022-11-12T14:14:50;18.10;;;11.65;;
58466;SDS011;44255;49.244;7.726;2022-11-12T14:17:23;18.17;;;10.98;;
58466;SDS011;44255;49.244;7.726;2022-11-12T14:23:19;19.48;;;13.52;;
58466;SDS011;44255;49.244;7.726;2022-11-12T14:25:50;20.17;;;13.43;;
58466;SDS011;44255;49.244;7.726;2022-11-12T14:30:55;21.65;;;13.73;;
58466;SDS011;44255;49.244;7.726;2022-11-12T14:33:23;24.00;;;14.63;;
58466;SDS011;44255;49.244;7.726;2022-11-12T14:35:53;24.50;;;15.00;;
58466;SDS011;44255;49.244;7.726;2022-11-12T14:38:28;23.25;;;14.93;;
58466;SDS011;44255;49.244;7.726;2022-11-12T14:40:57;28.67;;;16.17;;
58466;SDS011;44255;49.244;7.726;2022-11-12T14:45:57;26.17;;;15.10;;
58466;SDS011;44255;49.244;7.726;2022-11-12T14:48:25;26.85;;;14.98;;
58466;SDS011;44255;49.244;7.726;2022-11-12T14:50:54;23.77;;;14.88;;
58466;SDS011;44255;49.244;7.726;2022-11-12T14:53:40;27.15;;;14.82;;
58466;SDS011;44255;49.244;7.726;2022-11-12T14:56:13;23.35;;;14.73;;
58466;SDS011;44255;49.244;7.726;2022-11-12T14:58:46;24.00;;;14.40;;
58466;SDS011;44255;49.244;7.726;2022-11-12T15:01:18;22.38;;;14.35;;
58466;SDS011;44255;49.244;7.726;2022-11-12T15:03:46;25.52;;;15.52;;
58466;SDS011;44255;49.244;7.726;2022-11-12T15:06:11;26.80;;;16.60;;
58466;SDS011;44255;49.244;7.726;2022-11-12T15:08:39;22.88;;;14.85;;
58466;SDS011;44255;49.244;7.726;2022-11-12T15:11:15;26.53;;;16.30;;
58466;SDS011;44255;49.244;7.726;2022-11-12T15:13:43;28.42;;;16.45;;
58466;SDS011;44255;49.244;7.726;2022-11-12T15:16:10;25.75;;;16.35;;
58466;SDS011;44255;49.244;7.726;2022-11-12T15:18:42;32.10;;;17.48;;
58466;SDS011;44255;49.244;7.726;2022-11-12T15:23:44;25.35;;;15.77;;
58466;SDS011;44255;49.244;7.726;2022-11-12T15:26:12;24.65;;;15.77;;
58466;SDS011;44255;49.244;7.726;2022-11-12T15:29:00;24.73;;;15.18;;
58466;SDS011;44255;49.244;7.726;2022-11-12T15:31:28;26.92;;;15.73;;
58466;SDS011;44255;49.244;7.726;2022-11-12T15:33:53;21.40;;;13.97;;
58466;SDS011;44255;49.244;7.726;2022-11-12T15:36:20;25.50;;;15.45;;
58466;SDS011;44255;49.244;7.726;2022-11-12T15:38:48;23.75;;;15.20;;
58466;SDS011;44255;49.244;7.726;2022-11-12T15:41:49;25.90;;;15.32;;
58466;SDS011;44255;49.244;7.726;2022-11-12T15:44:08;22.50;;;14.93;;
58466;SDS011;44255;49.244;7.726;2022-11-12T15:46:35;23.55;;;15.07;;
58466;SDS011;44255;49.244;7.726;2022-11-12T15:49:08;23.13;;;15.20;;
58466;SDS011;44255;49.244;7.726;2022-11-12T15:51:36;23.17;;;14.88;;
58466;SDS011;44255;49.244;7.726;2022-11-12T15:54:01;24.33;;;14.70;;
58466;SDS011;44255;49.244;7.726;2022-11-12T15:56:26;21.20;;;13.80;;
58466;SDS011;44255;49.244;7.726;2022-11-12T15:58:51;21.20;;;13.57;;
58466;SDS011;44255;49.244;7.726;2022-11-12T16:01:17;25.93;;;15.10;;
58466;SDS011;44255;49.244;7.726;2022-11-12T16:03:42;25.10;;;13.80;;
58466;SDS011;44255;49.244;7.726;2022-11-12T16:06:09;23.50;;;15.17;;
58466;SDS011;44255;49.244;7.726;2022-11-12T16:08:35;24.88;;;16.02;;
58466;SDS011;44255;49.244;7.726;2022-11-12T16:11:01;28.77;;;17.27;;
58466;SDS011;44255;49.244;7.726;2022-11-12T16:13:35;24.07;;;15.33;;
58466;SDS011;44255;49.244;7.726;2022-11-12T16:16:01;23.33;;;14.02;;
58466;SDS011;44255;49.244;7.726;2022-11-12T16:18:30;20.95;;;14.30;;
58466;SDS011;44255;49.244;7.726;2022-11-12T16:20:55;22.17;;;13.90;;
58466;SDS011;44255;49.244;7.726;2022-11-12T16:23:20;22.93;;;13.97;;
58466;SDS011;44255;49.244;7.726;2022-11-12T16:25:46;21.97;;;14.00;;
58466;SDS011;44255;49.244;7.726;2022-11-12T16:28:12;25.23;;;17.23;;
58466;SDS011;44255;49.244;7.726;2022-11-12T16:30:39;24.08;;;15.32;;
58466;SDS011;44255;49.244;7.726;2022-11-12T16:35:32;23.17;;;14.88;;
58466;SDS011;44255;49.244;7.726;2022-11-12T16:37:59;25.40;;;15.25;;
58466;SDS011;44255;49.244;7.726;2022-11-12T16:40:25;23.37;;;14.60;;
58466;SDS011;44255;49.244;7.726;2022-11-12T16:42:52;21.25;;;13.57;;
58466;SDS011;44255;49.244;7.726;2022-11-12T16:45:18;19.73;;;13.57;;
58466;SDS011;44255;49.244;7.726;2022-11-12T16:47:49;22.20;;;13.27;;
58466;SDS011;44255;49.244;7.726;2022-11-12T16:50:18;21.33;;;13.23;;
58466;SDS011;44255;49.244;7.726;2022-11-12T16:52:46;21.13;;;13.25;;
58466;SDS011;44255;49.244;7.726;2022-11-12T16:55:12;20.67;;;13.85;;
58466;SDS011;44255;49.244;7.726;2022-11-12T16:57:37;26.98;;;15.18;;
58466;SDS011;44255;49.244;7.726;2022-11-12T17:00:16;22.90;;;13.60;;
58466;SDS011;44255;49.244;7.726;2022-11-12T17:03:05;20.00;;;12.98;;
58466;SDS011;44255;49.244;7.726;2022-11-12T17:05:32;21.40;;;12.73;;
58466;SDS011;44255;49.244;7.726;2022-11-12T17:07:57;20.38;;;13.25;;
58466;SDS011;44255;49.244;7.726;2022-11-12T17:10:22;19.40;;;12.13;;
58466;SDS011;44255;49.244;7.726;2022-11-12T17:12:49;21.45;;;13.05;;
58466;SDS011;44255;49.244;7.726;2022-11-12T17:15:15;18.67;;;12.40;;
58466;SDS011;44255;49.244;7.726;2022-11-12T17:17:41;28.17;;;16.83;;
58466;SDS011;44255;49.244;7.726;2022-11-12T17:20:09;24.33;;;14.27;;
58466;SDS011;44255;49.244;7.726;2022-11-12T17:22:35;21.90;;;12.98;;
58466;SDS011;44255;49.244;7.726;2022-11-12T17:27:32;51.45;;;22.55;;
58466;SDS011;44255;49.244;7.726;2022-11-12T17:30:12;47.47;;;22.45;;
58466;SDS011;44255;49.244;7.726;2022-11-12T17:32:50;34.65;;;16.85;;
58466;SDS011;44255;49.244;7.726;2022-11-12T17:35:21;21.35;;;13.32;;
58466;SDS011;44255;49.244;7.726;2022-11-12T17:37:52;22.90;;;14.30;;
58466;SDS011;44255;49.244;7.726;2022-11-12T17:40:18;21.77;;;13.33;;
58466;SDS011;44255;49.244;7.726;2022-11-12T17:42:43;20.17;;;12.93;;
58466;SDS011;44255;49.244;7.726;2022-11-12T17:45:11;19.50;;;12.10;;
58466;SDS011;44255;49.244;7.726;2022-11-12T17:47:39;19.33;;;11.82;;
58466;SDS011;44255;49.244;7.726;2022-11-12T17:50:05;22.52;;;12.93;;
58466;SDS011;44255;49.244;7.726;2022-11-12T17:52:38;22.02;;;12.90;;
58466;SDS011;44255;49.244;7.726;2022-11-12T17:55:03;22.55;;;14.05;;
58466;SDS011;44255;49.244;7.726;2022-11-12T18:00:39;22.25;;;12.70;;
58466;SDS011;44255;49.244;7.726;2022-11-12T18:09:19;33.45;;;16.95;;
58466;SDS011;44255;49.244;7.726;2022-11-12T18:11:54;42.88;;;19.73;;
58466;SDS011;44255;49.244;7.726;2022-11-12T18:14:30;25.10;;;14.43;;
58466;SDS011;44255;49.244;7.726;2022-11-12T18:17:08;22.60;;;13.35;;
58466;SDS011;44255;49.244;7.726;2022-11-12T18:19:49;22.45;;;13.50;;
58466;SDS011;44255;49.244;7.726;2022-11-12T18:22:17;21.42;;;12.43;;
58466;SDS011;44255;49.244;7.726;2022-11-12T18:25:10;23.70;;;13.90;;
58466;SDS011;44255;49.244;7.726;2022-11-12T18:27:39;23.73;;;13.00;;
58466;SDS011;44255;49.244;7.726;2022-11-12T18:30:07;22.15;;;12.88;;
58466;SDS011;44255;49.244;7.726;2022-11-12T18:32:38;18.83;;;11.60;;
58466;SDS011;44255;49.244;7.726;2022-11-12T18:35:07;22.13;;;12.80;;
58466;SDS011;44255;49.244;7.726;2022-11-12T18:37:38;20.42;;;12.07;;
58466;SDS011;44255;49.244;7.726;2022-11-12T18:40:04;22.02;;;12.05;;
58466;SDS011;44255;49.244;7.726;2022-11-12T18:42:30;18.90;;;11.63;;
58466;SDS011;44255;49.244;7.726;2022-11-12T18:45:05;19.30;;;11.57;;
58466;SDS011;44255;49.244;7.726;2022-11-12T18:47:46;18.90;;;10.10;;
58466;SDS011;44255;49.244;7.726;2022-11-12T18:50:18;18.67;;;10.98;;
58466;SDS011;44255;49.244;7.726;2022-11-12T18:55:55;21.38;;;11.88;;
58466;SDS011;44255;49.244;7.726;2022-11-12T18:58:32;17.15;;;10.63;;
58466;SDS011;44255;49.244;7.726;2022-11-12T19:01:04;21.52;;;12.00;;
58466;SDS011;44255;49.244;7.726;2022-11-12T19:03:30;25.48;;;13.43;;
58466;SDS011;44255;49.244;7.726;2022-11-12T19:06:02;22.33;;;12.43;;
58466;SDS011;44255;49.244;7.726;2022-11-12T19:08:29;20.02;;;10.98;;
58466;SDS011;44255;49.244;7.726;2022-11-12T19:10:57;23.15;;;12.85;;
58466;SDS011;44255;49.244;7.726;2022-11-12T19:13:23;18.83;;;11.05;;
58466;SDS011;44255;49.244;7.726;2022-11-12T19:15:52;23.00;;;12.32;;
58466;SDS011;44255;49.244;7.726;2022-11-12T19:18:17;17.90;;;11.30;;
58466;SDS011;44255;49.244;7.726;2022-11-12T19:20:43;18.95;;;11.00;;
58466;SDS011;44255;49.244;7.726;2022-11-12T19:23:11;17.30;;;10.40;;
58466;SDS011;44255;49.244;7.726;2022-11-12T19:25:43;16.25;;;9.32;;
58466;SDS011;44255;49.244;7.726;2022-11-12T19:28:18;19.02;;;10.93;;
58466;SDS011;44255;49.244;7.726;2022-11-12T19:30:44;21.85;;;11.85;;
58466;SDS011;44255;49.244;7.726;2022-11-12T19:33:15;22.20;;;11.90;;
58466;SDS011;44255;49.244;7.726;2022-11-12T19:35:49;24.00;;;12.98;;
58466;SDS011;44255;49.244;7.726;2022-11-12T19:38:20;24.05;;;13.52;;
58466;SDS011;44255;49.244;7.726;2022-11-12T19:40:46;23.38;;;13.82;;
58466;SDS011;44255;49.244;7.726;2022-11-12T19:43:12;23.25;;;14.82;;
58466;SDS011;44255;49.244;7.726;2022-11-12T19:45:40;28.98;;;14.32;;
58466;SDS011;44255;49.244;7.726;2022-11-12T19:48:06;25.77;;;14.07;;
58466;SDS011;44255;49.244;7.726;2022-11-12T19:50:32;25.67;;;13.38;;
58466;SDS011;44255;49.244;7.726;2022-11-12T19:53:01;19.83;;;11.32;;
58466;SDS011;44255;49.244;7.726;2022-11-12T19:55:32;23.00;;;13.15;;
58466;SDS011;44255;49.244;7.726;2022-11-12T19:57:58;27.50;;;14.20;;
58466;SDS011;44255;49.244;7.726;2022-11-12T20:00:26;21.95;;;11.82;;
58466;SDS011;44255;49.244;7.726;2022-11-12T20:02:55;23.40;;;13.10;;
58466;SDS011;44255;49.244;7.726;2022-11-12T20:05:29;22.65;;;11.63;;
58466;SDS011;44255;49.244;7.726;2022-11-12T20:07:54;21.42;;;11.90;;
58466;SDS011;44255;49.244;7.726;2022-11-12T20:10:25;25.33;;;14.68;;
58466;SDS011;44255;49.244;7.726;2022-11-12T20:13:05;26.58;;;15.23;;
58466;SDS011;44255;49.244;7.726;2022-11-12T20:15:36;28.77;;;16.67;;
58466;SDS011;44255;49.244;7.726;2022-11-12T20:18:08;25.42;;;13.70;;
58466;SDS011;44255;49.244;7.726;2022-11-12T20:20:33;25.50;;;11.98;;
58466;SDS011;44255;49.244;7.726;2022-11-12T20:23:01;26.58;;;13.25;;
58466;SDS011;44255;49.244;7.726;2022-11-12T20:25:29;29.95;;;15.65;;
58466;SDS011;44255;49.244;7.726;2022-11-12T20:28:00;26.85;;;13.52;;
58466;SDS011;44255;49.244;7.726;2022-11-12T20:30:25;31.48;;;18.33;;
58466;SDS011;44255;49.244;7.726;2022-11-12T20:32:51;26.05;;;14.65;;
58466;SDS011;44255;49.244;7.726;2022-11-12T20:35:29;25.50;;;13.80;;
58466;SDS011;44255;49.244;7.726;2022-11-12T20:38:00;25.38;;;13.52;;
58466;SDS011;44255;49.244;7.726;2022-11-12T20:40:29;23.40;;;12.48;;
58466;SDS011;44255;49.244;7.726;2022-11-12T20:43:02;25.23;;;13.13;;
58466;SDS011;44255;49.244;7.726;2022-11-12T20:45:31;25.45;;;13.57;;
58466;SDS011;44255;49.244;7.726;2022-11-12T20:48:03;32.47;;;15.48;;
58466;SDS011;44255;49.244;7.726;2022-11-12T20:50:38;31.30;;;14.15;;
58466;SDS011;44255;49.244;7.726;2022-11-12T20:53:04;24.23;;;12.60;;
58466;SDS011;44255;49.244;7.726;2022-11-12T20:55:32;26.08;;;14.15;;
58466;SDS011;44255;49.244;7.726;2022-11-12T20:58:07;25.13;;;13.55;;
58466;SDS011;44255;49.244;7.726;2022-11-12T21:01:12;25.23;;;13.10;;
58466;SDS011;44255;49.244;7.726;2022-11-12T21:03:45;21.73;;;12.27;;
58466;SDS011;44255;49.244;7.726;2022-11-12T21:06:13;24.10;;;13.32;;
58466;SDS011;44255;49.244;7.726;2022-11-12T21:08:43;23.65;;;13.65;;
58466;SDS011;44255;49.244;7.726;2022-11-12T21:11:14;22.88;;;13.35;;
58466;SDS011;44255;49.244;7.726;2022-11-12T21:13:52;20.70;;;11.60;;
58466;SDS011;44255;49.244;7.726;2022-11-12T21:16:17;20.42;;;11.57;;
58466;SDS011;44255;49.244;7.726;2022-11-12T21:18:48;32.72;;;16.88;;
58466;SDS011;44255;49.244;7.726;2022-11-12T21:21:19;27.40;;;15.18;;
58466;SDS011;44255;49.244;7.726;2022-11-12T21:23:48;27.60;;;14.68;;
58466;SDS011;44255;49.244;7.726;2022-11-12T21:26:19;22.05;;;12.70;;
58466;SDS011;44255;49.244;7.726;2022-11-12T21:29:00;23.20;;;12.73;;
58466;SDS011;44255;49.244;7.726;2022-11-12T21:31:31;21.10;;;11.07;;
58466;SDS011;44255;49.244;7.726;2022-11-12T21:34:16;20.90;;;10.82;;
58466;SDS011;44255;49.244;7.726;2022-11-12T21:36:44;21.00;;;10.90;;
58466;SDS011;44255;49.244;7.726;2022-11-12T21:39:15;17.70;;;10.52;;
58466;SDS011;44255;49.244;7.726;2022-11-12T21:41:46;18.85;;;10.32;;
58466;SDS011;44255;49.244;7.726;2022-11-12T21:44:14;16.55;;;9.77;;
58466;SDS011;44255;49.244;7.726;2022-11-12T21:46:52;16.92;;;9.75;;
58466;SDS011;44255;49.244;7.726;2022-11-12T21:49:25;17.30;;;9.75;;
58466;SDS011;44255;49.244;7.726;2022-11-12T21:52:03;18.73;;;9.32;;